Terminal Aerodrome Forecast
Issued by NWS

Home | Current Version | Previous Version | Text Only | Print | Product List | Glossary On
Versions: 1 2 3 4 5 6 7 8 9 10 11 12 13 14 15 16 17 18
000
FTUS45 KABQ 122300
TAFFMN
TAF
KFMN 122324Z 1300/1324 04015KT P6SM VCTS BKN080CB
      TEMPO 1300/1302 VRB15G25KT -SHRA BKN070
     FM130200 06013KT P6SM VCSH BKN100
     FM130400 09007KT P6SM SCT120 BKN200
     FM132000 13011KT P6SM VCSH SCT090 BKN150=

USA.gov is the U.S. government's official web portal to all federal, state and local government web resources and services.